Time;durP1;ratioP1;P1;durP2;ratioP2;P2;SDS_P1;SDS_P2;PMS_P1;PMS_P2;Temp;Humidity;BMP_temperature;BMP_pressure;BME280_temperature;BME280_humidity;BME280_pressure;Samples;Min_cycle;Max_cycle;Signal;HPM_P1;HPM_P2
2023/06/15 00:02:13;;;;;;;2.67;1.80;;;15.40;82.40;;;;;;5042338;28;20226;-50
2023/06/15 00:04:40;;;;;;;3.80;2.17;;;15.30;82.70;;;;;;5039568;28;20969;-52
2023/06/15 00:07:07;;;;;;;2.77;2.13;;;15.30;83.00;;;;;;5038901;28;20196;-51
2023/06/15 00:09:35;;;;;;;3.03;1.70;;;15.30;83.50;;;;;;5029420;28;20219;-50
2023/06/15 00:12:02;;;;;;;2.20;2.00;;;15.30;83.90;;;;;;5043325;28;20188;-53
2023/06/15 00:14:29;;;;;;;2.63;1.90;;;15.20;84.10;;;;;;5021659;28;20257;-53
2023/06/15 00:16:57;;;;;;;1.80;1.70;;;15.20;84.50;;;;;;5026177;28;20200;-53
2023/06/15 00:19:26;;;;;;;3.13;2.13;;;15.10;84.90;;;;;;5034054;28;20736;-53
2023/06/15 00:21:53;;;;;;;4.77;2.13;;;15.10;85.40;;;;;;5040509;28;20184;-53
2023/06/15 00:24:20;;;;;;;3.00;1.93;;;15.00;85.60;;;;;;5034081;28;20302;-52
2023/06/15 00:26:48;;;;;;;4.00;2.00;;;15.00;86.10;;;;;;5042907;28;20191;-53
2023/06/15 00:29:18;;;;;;;2.33;1.63;;;15.00;86.40;;;;;;5021430;28;21428;-51
2023/06/15 00:31:44;;;;;;;3.60;1.90;;;15.00;86.80;;;;;;5021088;28;20552;-51
2023/06/15 00:34:11;;;;;;;2.87;2.63;;;14.90;87.30;;;;;;5038304;28;20183;-52
2023/06/15 00:36:38;;;;;;;2.97;1.73;;;14.90;88.50;;;;;;5039746;28;20281;-53
2023/06/15 00:39:05;;;;;;;2.30;2.03;;;14.90;88.30;;;;;;5037757;28;20973;-47
2023/06/15 00:41:41;;;;;;;2.70;1.43;;;14.90;88.10;;;;;;5036422;28;20744;-51
2023/06/15 00:44:09;;;;;;;2.57;2.37;;;14.90;88.30;;;;;;5016275;28;20226;-51
2023/06/15 00:46:37;;;;;;;2.90;1.90;;;14.80;88.80;;;;;;5039333;28;20706;-51
2023/06/15 00:49:05;;;;;;;2.70;1.80;;;14.80;89.60;;;;;;5030760;28;20289;-49
2023/06/15 00:51:33;;;;;;;3.30;2.07;;;14.70;89.90;;;;;;5041529;28;20194;-48
2023/06/15 00:54:00;;;;;;;4.07;1.80;;;14.70;90.10;;;;;;5035682;28;20298;-51
2023/06/15 00:56:29;;;;;;;2.70;2.10;;;14.70;90.30;;;;;;5030413;28;20214;-47
2023/06/15 00:58:56;;;;;;;2.43;2.07;;;14.70;90.40;;;;;;5030663;28;20215;-53
2023/06/15 01:01:25;;;;;;;3.13;2.20;;;14.70;90.50;;;;;;5033699;28;20234;-49
2023/06/15 01:03:54;;;;;;;4.17;1.97;;;14.60;90.60;;;;;;5035509;28;20218;-51
2023/06/15 01:06:24;;;;;;;3.30;2.07;;;14.60;90.90;;;;;;5038220;28;20179;-51
2023/06/15 01:08:57;;;;;;;3.00;2.13;;;14.60;91.10;;;;;;5022218;28;20332;-47
2023/06/15 01:11:24;;;;;;;1.87;1.43;;;14.50;91.20;;;;;;5032032;28;20249;-53
2023/06/15 01:13:51;;;;;;;2.57;2.10;;;14.50;91.40;;;;;;5040547;28;20205;-46
2023/06/15 01:16:24;;;;;;;2.87;1.80;;;14.50;91.70;;;;;;5017204;28;20210;-53
2023/06/15 01:18:57;;;;;;;2.30;2.10;;;14.50;91.80;;;;;;5025028;28;20324;-50
2023/06/15 01:21:27;;;;;;;2.20;1.90;;;14.50;91.80;;;;;;5039709;28;20570;-54
2023/06/15 01:24:09;;;;;;;2.20;2.00;;;14.50;92.00;;;;;;5040735;28;20921;-49
2023/06/15 01:26:40;;;;;;;3.57;1.77;;;14.50;92.20;;;;;;5030663;28;20198;-47
2023/06/15 01:29:07;;;;;;;2.47;2.07;;;14.40;92.40;;;;;;5035121;28;20272;-50
2023/06/15 01:31:35;;;;;;;5.80;1.80;;;14.30;92.90;;;;;;5011572;28;20204;-51
2023/06/15 01:34:01;;;;;;;7.53;2.30;;;14.30;93.20;;;;;;5028512;28;20203;-48
2023/06/15 01:36:28;;;;;;;4.57;2.33;;;14.30;93.40;;;;;;5037286;28;20286;-54
2023/06/15 01:38:58;;;;;;;2.83;1.80;;;14.30;93.70;;;;;;5038970;28;20235;-48
2023/06/15 01:41:27;;;;;;;2.20;1.83;;;14.30;94.30;;;;;;5035039;28;20199;-52
2023/06/15 01:43:57;;;;;;;3.00;1.80;;;14.30;94.30;;;;;;5035231;28;20299;-51
2023/06/15 01:46:25;;;;;;;1.97;1.77;;;14.30;94.50;;;;;;5029635;28;20191;-49
2023/06/15 01:48:53;;;;;;;2.90;1.90;;;14.30;94.50;;;;;;5021585;28;20246;-47
2023/06/15 01:51:23;;;;;;;2.53;2.33;;;14.30;94.50;;;;;;5036997;28;20238;-52
2023/06/15 01:53:50;;;;;;;2.50;1.80;;;14.20;94.70;;;;;;5038106;28;20245;-52
2023/06/15 01:56:18;;;;;;;2.20;2.00;;;14.20;94.80;;;;;;5035861;28;20196;-53
2023/06/15 01:58:45;;;;;;;2.10;1.90;;;14.20;94.90;;;;;;5032622;28;20265;-50
2023/06/15 02:01:13;;;;;;;3.53;1.90;;;14.10;95.20;;;;;;5042413;28;20199;-51
2023/06/15 02:03:41;;;;;;;2.03;1.93;;;14.10;95.40;;;;;;5017001;28;20227;-48
2023/06/15 02:06:11;;;;;;;2.10;1.70;;;14.10;95.60;;;;;;5039034;28;20215;-52
2023/06/15 02:08:38;;;;;;;4.43;2.07;;;14.10;95.80;;;;;;5038010;28;20318;-50
2023/06/15 02:11:04;;;;;;;2.90;2.30;;;14.00;96.00;;;;;;5043969;28;20249;-48
2023/06/15 02:13:32;;;;;;;3.93;2.20;;;14.00;96.30;;;;;;5034335;28;20199;-51
2023/06/15 02:15:59;;;;;;;2.37;2.00;;;13.90;96.50;;;;;;5044347;28;20195;-51
2023/06/15 02:18:30;;;;;;;2.13;1.80;;;13.80;97.10;;;;;;5018828;28;20583;-54
2023/06/15 02:20:56;;;;;;;2.50;2.10;;;13.70;97.70;;;;;;5035364;28;20212;-48
2023/06/15 02:23:24;;;;;;;1.90;1.80;;;13.60;98.30;;;;;;5042149;28;20705;-53
2023/06/15 02:25:50;;;;;;;2.23;1.60;;;13.60;98.70;;;;;;5042234;28;20245;-47
2023/06/15 02:28:17;;;;;;;2.20;2.10;;;13.50;99.10;;;;;;5034747;28;20859;-47
2023/06/15 02:30:44;;;;;;;2.23;2.00;;;13.50;99.30;;;;;;5039217;28;20191;-51
2023/06/15 02:33:12;;;;;;;2.30;2.10;;;13.60;99.40;;;;;;5016395;28;20289;-50
2023/06/15 02:35:41;;;;;;;2.60;1.90;;;13.60;99.40;;;;;;5033212;28;20245;-47
2023/06/15 02:38:07;;;;;;;2.30;2.10;;;13.60;99.50;;;;;;5038965;28;20674;-53
2023/06/15 02:40:34;;;;;;;6.87;2.27;;;13.60;99.60;;;;;;5043715;28;20215;-47
2023/06/15 02:43:01;;;;;;;2.77;2.30;;;13.50;99.70;;;;;;5035086;28;20211;-52
2023/06/15 02:45:28;;;;;;;5.43;2.10;;;13.40;99.90;;;;;;5037793;28;20195;-47
2023/06/15 02:47:56;;;;;;;2.40;2.20;;;13.30;99.90;;;;;;5043632;28;20273;-52
2023/06/15 02:50:23;;;;;;;2.10;2.00;;;13.20;99.90;;;;;;5015414;28;20223;-50
2023/06/15 02:53:00;;;;;;;2.00;1.80;;;13.10;99.90;;;;;;5031852;28;20265;-53
2023/06/15 02:55:28;;;;;;;1.87;1.77;;;13.00;99.90;;;;;;5035593;28;20662;-50
2023/06/15 02:57:55;;;;;;;2.27;1.80;;;13.00;99.90;;;;;;5042294;28;20202;-53
2023/06/15 03:00:37;;;;;;;3.77;2.03;;;13.00;99.90;;;;;;5036924;28;20548;-47
2023/06/15 03:03:22;;;;;;;2.60;2.40;;;12.90;99.90;;;;;;5040805;28;20207;-49
2023/06/15 03:05:51;;;;;;;2.80;2.00;;;12.90;99.90;;;;;;5013341;28;20215;-55
2023/06/15 03:08:20;;;;;;;3.13;2.07;;;12.90;99.90;;;;;;5026665;28;20256;-48
2023/06/15 03:10:54;;;;;;;2.50;2.30;;;12.80;99.90;;;;;;5041934;28;20586;-55
2023/06/15 03:13:21;;;;;;;3.20;2.00;;;12.70;99.90;;;;;;5032749;28;20200;-52
2023/06/15 03:15:49;;;;;;;2.20;2.00;;;12.70;99.90;;;;;;5032942;28;20542;-52
2023/06/15 03:18:16;;;;;;;3.50;2.40;;;12.70;99.90;;;;;;5049531;28;20200;-54
2023/06/15 03:20:52;;;;;;;2.13;1.93;;;12.70;99.90;;;;;;5019127;28;20907;-51
2023/06/15 03:23:21;;;;;;;3.03;2.07;;;12.70;99.90;;;;;;5023021;28;20220;-51
2023/06/15 03:25:49;;;;;;;2.93;2.60;;;12.70;99.90;;;;;;5047192;28;20261;-49
2023/06/15 03:28:16;;;;;;;2.20;2.00;;;12.70;99.90;;;;;;5042639;28;20194;-52
2023/06/15 03:30:48;;;;;;;2.80;2.53;;;12.70;99.90;;;;;;5025875;28;20467;-50
2023/06/15 03:33:16;;;;;;;2.10;2.00;;;12.60;99.90;;;;;;5030282;28;20203;-48
2023/06/15 03:35:45;;;;;;;2.77;2.50;;;12.60;99.90;;;;;;5018790;28;20204;-51
2023/06/15 03:38:12;;;;;;;3.03;2.47;;;12.60;99.90;;;;;;5029772;28;20879;-48
2023/06/15 03:40:42;;;;;;;2.40;2.07;;;;;;;;;;5036586;28;20635;-52
2023/06/15 03:43:09;;;;;;;3.07;2.40;;;12.60;99.90;;;;;;5034146;28;20184;-49
2023/06/15 03:45:36;;;;;;;2.40;2.20;;;12.50;99.90;;;;;;5043937;28;20183;-48
2023/06/15 03:48:03;;;;;;;2.80;2.37;;;12.50;99.90;;;;;;5031467;28;20968;-50
2023/06/15 03:50:32;;;;;;;3.70;2.50;;;12.50;99.90;;;;;;5042902;28;20268;-47
2023/06/15 03:52:59;;;;;;;3.30;2.20;;;12.50;99.90;;;;;;5008391;28;20213;-55
2023/06/15 03:55:52;;;;;;;2.90;2.50;;;12.50;99.90;;;;;;5032687;28;20207;-52
2023/06/15 03:58:44;;;;;;;5.17;2.43;;;12.30;99.90;;;;;;5043399;28;20333;-52
2023/06/15 04:01:36;;;;;;;2.83;2.30;;;12.30;99.90;;;;;;5035553;28;20234;-48
2023/06/15 04:04:04;;;;;;;2.70;2.50;;;12.40;99.90;;;;;;5039650;28;20295;-51
2023/06/15 04:06:32;;;;;;;3.37;2.00;;;12.40;99.90;;;;;;5019218;28;20215;-47
2023/06/15 04:08:59;;;;;;;2.90;2.10;;;12.30;99.90;;;;;;5023732;28;20234;-48
2023/06/15 04:11:28;;;;;;;5.57;2.50;;;12.30;99.90;;;;;;5042478;28;20198;-47
2023/06/15 04:13:55;;;;;;;2.83;2.53;;;12.30;99.90;;;;;;5039438;28;20192;-53
2023/06/15 04:16:23;;;;;;;3.83;2.37;;;12.20;99.90;;;;;;5025499;28;20231;-55
2023/06/15 04:18:51;;;;;;;4.20;2.50;;;12.20;99.90;;;;;;5035119;28;20230;-48
2023/06/15 04:21:17;;;;;;;2.77;2.50;;;12.30;99.90;;;;;;5030600;28;20650;-53
2023/06/15 04:23:44;;;;;;;2.83;2.63;;;12.20;99.90;;;;;;5026433;28;20222;-47
2023/06/15 04:26:13;;;;;;;5.00;3.23;;;12.20;99.90;;;;;;5034816;28;20199;-53
2023/06/15 04:28:45;;;;;;;3.10;2.80;;;12.30;99.90;;;;;;5038616;28;20203;-54
2023/06/15 04:31:37;;;;;;;4.53;2.90;;;12.40;99.90;;;;;;5025991;28;20313;-51
2023/06/15 04:34:29;;;;;;;3.40;2.17;;;12.40;99.90;;;;;;5039690;28;20441;-52
2023/06/15 04:37:23;;;;;;;6.87;2.57;;;12.40;99.90;;;;;;5025362;28;20199;-55
2023/06/15 04:40:15;;;;;;;5.03;2.60;;;12.40;99.90;;;;;;5031305;28;20219;-54
2023/06/15 04:43:06;;;;;;;4.77;2.93;;;12.40;99.90;;;;;;5026940;28;20206;-54
2023/06/15 04:45:59;;;;;;;3.13;2.40;;;12.50;99.90;;;;;;5039796;28;20679;-52
2023/06/15 04:48:51;;;;;;;2.87;2.53;;;12.60;99.90;;;;;;5026542;28;20739;-52
2023/06/15 04:51:44;;;;;;;2.70;2.43;;;12.60;99.90;;;;;;5044681;28;20190;-53
2023/06/15 04:54:36;;;;;;;4.13;2.53;;;12.80;99.90;;;;;;5008425;28;20405;-51
2023/06/15 04:57:03;;;;;;;5.73;2.70;;;12.90;99.90;;;;;;5035033;28;20206;-53
2023/06/15 04:59:31;;;;;;;3.80;2.50;;;13.00;99.90;;;;;;5039025;28;20535;-53
2023/06/15 05:02:00;;;;;;;2.80;2.60;;;13.10;99.90;;;;;;5043497;28;20203;-49
2023/06/15 05:04:32;;;;;;;2.83;2.63;;;13.20;99.90;;;;;;5033333;28;20234;-53
2023/06/15 05:07:00;;;;;;;4.23;2.60;;;13.30;99.90;;;;;;5037081;28;20518;-52
2023/06/15 05:09:27;;;;;;;5.23;2.73;;;13.40;99.90;;;;;;5015728;28;20231;-50
2023/06/15 05:11:55;;;;;;;3.60;2.47;;;13.40;99.90;;;;;;5035656;28;20239;-52
2023/06/15 05:14:25;;;;;;;3.30;3.00;;;13.50;99.90;;;;;;5037816;28;20282;-48
2023/06/15 05:16:53;;;;;;;2.67;2.37;;;13.50;99.90;;;;;;5029469;28;20257;-54
2023/06/15 05:19:21;;;;;;;2.80;2.47;;;13.60;99.90;;;;;;5031563;28;20387;-50
2023/06/15 05:21:51;;;;;;;4.10;2.67;;;13.70;99.90;;;;;;5031366;28;20982;-50
2023/06/15 05:24:18;;;;;;;3.27;2.77;;;13.80;99.90;;;;;;5026442;28;20219;-50
2023/06/15 05:26:47;;;;;;;4.87;2.30;;;;;;;;;;5029781;28;20258;-54
2023/06/15 05:29:15;;;;;;;3.63;2.30;;;13.90;99.90;;;;;;5036876;28;20216;-51
2023/06/15 05:31:45;;;;;;;4.80;2.33;;;;;;;;;;5036778;28;20261;-52
2023/06/15 05:34:12;;;;;;;3.37;2.60;;;;;;;;;;5030618;28;20670;-50
2023/06/15 05:36:41;;;;;;;6.13;2.93;;;14.00;99.90;;;;;;5036351;28;20206;-53
2023/06/15 05:39:09;;;;;;;3.33;2.67;;;14.40;99.90;;;;;;5027307;28;20233;-54
2023/06/15 05:41:39;;;;;;;5.50;2.60;;;;;;;;;;5026519;28;20210;-49
2023/06/15 05:44:07;;;;;;;5.57;3.13;;;;;;;;;;5042970;28;20656;-52
2023/06/15 05:46:33;;;;;;;3.40;2.57;;;14.80;99.90;;;;;;5042874;28;20253;-55
2023/06/15 05:49:01;;;;;;;4.67;3.20;;;;;;;;;;5042332;28;20261;-50
2023/06/15 05:51:28;;;;;;;11.77;2.73;;;;;;;;;;5032010;28;20664;-51
2023/06/15 05:53:57;;;;;;;3.80;3.00;;;;;;;;;;5035696;28;20241;-48
2023/06/15 05:56:26;;;;;;;6.60;2.60;;;;;;;;;;5021869;28;20207;-50
2023/06/15 05:58:54;;;;;;;8.53;2.50;;;;;;;;;;5024687;28;20216;-54
2023/06/15 06:01:21;;;;;;;6.90;2.60;;;;;;;;;;5044453;28;20203;-49
2023/06/15 06:03:51;;;;;;;3.03;2.30;;;;;;;;;;5034958;28;20200;-51
2023/06/15 06:06:19;;;;;;;3.83;2.10;;;;;;;;;;5029461;28;20250;-56
2023/06/15 06:08:47;;;;;;;5.40;2.97;;;;;;;;;;5034241;28;20913;-52
2023/06/15 06:11:16;;;;;;;3.23;2.73;;;;;;;;;;5026033;28;20666;-52
2023/06/15 06:13:47;;;;;;;5.73;2.73;;;;;;;;;;5035768;28;20297;-52
2023/06/15 06:16:15;;;;;;;3.23;2.50;;;;;;;;;;5040941;28;20196;-53
2023/06/15 06:18:42;;;;;;;5.27;2.33;;;;;;;;;;5036035;28;20238;-49
2023/06/15 06:21:09;;;;;;;4.53;2.47;;;;;;;;;;5043979;28;20191;-51
2023/06/15 06:23:36;;;;;;;3.23;1.90;;;16.60;99.90;;;;;;5030749;28;20217;-53
2023/06/15 06:26:05;;;;;;;3.97;2.30;;;16.70;99.90;;;;;;5043787;28;20697;-51
2023/06/15 06:28:33;;;;;;;5.73;2.73;;;16.80;99.90;;;;;;5004711;28;20920;-52
2023/06/15 06:31:00;;;;;;;6.50;2.93;;;;;;;;;;5029862;28;20211;-48
2023/06/15 06:33:27;;;;;;;3.27;2.20;;;;;;;;;;5045454;28;20187;-49
2023/06/15 06:35:54;;;;;;;5.47;2.30;;;17.10;99.90;;;;;;5042552;28;20249;-53
2023/06/15 06:38:21;;;;;;;3.47;2.27;;;17.30;99.90;;;;;;5032643;28;20227;-51
2023/06/15 06:40:48;;;;;;;7.47;2.60;;;17.50;99.90;;;;;;5039835;28;20203;-55
2023/06/15 06:43:17;;;;;;;2.23;2.00;;;;;;;;;;5019498;28;20877;-48
2023/06/15 06:45:51;;;;;;;8.80;2.50;;;;;;;;;;5028402;28;20219;-48
2023/06/15 06:48:18;;;;;;;5.57;2.50;;;17.90;99.90;;;;;;5040778;28;20208;-53
2023/06/15 06:50:45;;;;;;;7.73;2.67;;;18.30;97.00;;;;;;5044981;28;20593;-53
2023/06/15 06:53:12;;;;;;;4.07;2.70;;;18.60;96.00;;;;;;5031480;28;20211;-55
2023/06/15 06:55:42;;;;;;;5.57;2.40;;;18.70;95.20;;;;;;5042072;28;20183;-54
2023/06/15 06:58:09;;;;;;;3.43;2.30;;;18.90;95.00;;;;;;5026555;28;20211;-51
2023/06/15 07:00:36;;;;;;;7.10;2.33;;;19.00;94.90;;;;;;5030307;28;20212;-52
2023/06/15 07:03:06;;;;;;;6.47;2.30;;;19.20;94.40;;;;;;5040941;28;20533;-54
2023/06/15 07:05:32;;;;;;;2.50;2.23;;;19.30;93.30;;;;;;5035577;28;20208;-51
2023/06/15 07:07:59;;;;;;;7.30;2.27;;;19.50;92.70;;;;;;5044949;28;20226;-53
2023/06/15 07:10:26;;;;;;;6.57;2.43;;;19.60;92.10;;;;;;5034825;28;20990;-53
2023/06/15 07:12:55;;;;;;;2.87;2.03;;;19.70;91.90;;;;;;5045014;28;20650;-52
2023/06/15 07:15:23;;;;;;;7.27;2.70;;;19.80;91.50;;;;;;5015929;28;20896;-54
2023/06/15 07:17:50;;;;;;;5.90;2.13;;;19.80;91.20;;;;;;5031855;28;20550;-52
2023/06/15 07:20:18;;;;;;;6.57;2.03;;;19.90;91.00;;;;;;5041006;28;20219;-52
2023/06/15 07:22:45;;;;;;;4.60;2.00;;;20.00;90.40;;;;;;5041438;28;20207;-49
2023/06/15 07:25:11;;;;;;;2.80;2.00;;;20.10;89.40;;;;;;5035093;28;20211;-50
2023/06/15 07:27:39;;;;;;;7.07;2.30;;;20.20;88.30;;;;;;5036208;28;20223;-54
2023/06/15 07:30:08;;;;;;;3.50;2.00;;;20.30;87.20;;;;;;5017357;28;20741;-52
2023/06/15 07:32:34;;;;;;;4.50;2.17;;;20.40;86.40;;;;;;5033644;28;20281;-53
2023/06/15 07:35:01;;;;;;;3.53;2.40;;;20.50;85.20;;;;;;5044360;28;20738;-49
2023/06/15 07:37:29;;;;;;;4.03;2.27;;;20.60;84.80;;;;;;5040051;28;20187;-52
2023/06/15 07:39:56;;;;;;;3.57;1.90;;;20.70;83.30;;;;;;5035107;28;20245;-51
2023/06/15 07:42:23;;;;;;;2.63;2.00;;;20.80;82.30;;;;;;5036582;28;20845;-52
2023/06/15 07:44:50;;;;;;;2.60;2.40;;;20.90;80.60;;;;;;5044265;28;20218;-50
2023/06/15 07:47:17;;;;;;;2.93;1.97;;;20.90;80.50;;;;;;5016412;28;20223;-52
2023/06/15 07:49:44;;;;;;;4.10;2.07;;;21.00;79.00;;;;;;5039172;28;20284;-50
2023/06/15 07:52:11;;;;;;;2.50;2.10;;;21.20;77.20;;;;;;5039129;28;20257;-48
2023/06/15 07:54:40;;;;;;;4.13;1.90;;;21.30;76.00;;;;;;5032913;28;20203;-54
2023/06/15 07:57:07;;;;;;;5.07;2.23;;;21.30;73.60;;;;;;5043183;28;20737;-54
2023/06/15 07:59:33;;;;;;;4.83;2.07;;;21.40;72.80;;;;;;5035077;28;20286;-51
2023/06/15 08:02:02;;;;;;;4.40;2.30;;;21.50;72.10;;;;;;5025824;28;20215;-53
2023/06/15 08:04:29;;;;;;;3.60;2.10;;;21.50;72.30;;;;;;5028082;28;20195;-50
2023/06/15 08:06:56;;;;;;;5.67;2.47;;;21.60;72.70;;;;;;5037453;28;20678;-51
2023/06/15 08:09:23;;;;;;;1.90;1.80;;;21.70;72.50;;;;;;5039909;28;20199;-48
2023/06/15 08:11:52;;;;;;;3.93;2.30;;;21.90;68.70;;;;;;5037636;28;20561;-54
2023/06/15 08:14:19;;;;;;;4.93;1.87;;;22.00;67.00;;;;;;5036745;28;20265;-53
2023/06/15 08:16:46;;;;;;;2.97;1.90;;;22.10;67.10;;;;;;5038022;28;20195;-53
2023/06/15 08:19:13;;;;;;;5.33;2.13;;;22.20;66.70;;;;;;5016475;28;20910;-52
2023/06/15 08:21:41;;;;;;;5.53;2.20;;;22.30;66.50;;;;;;5039176;28;20183;-50
2023/06/15 08:24:09;;;;;;;3.80;2.10;;;22.50;65.20;;;;;;5041361;28;20282;-54
2023/06/15 08:26:36;;;;;;;2.43;1.93;;;22.50;64.20;;;;;;5034828;28;20253;-53
2023/06/15 08:29:04;;;;;;;4.00;2.10;;;22.50;62.40;;;;;;5033164;28;20219;-52
2023/06/15 08:31:31;;;;;;;3.67;1.93;;;22.60;60.90;;;;;;5034909;28;20191;-53
2023/06/15 08:33:58;;;;;;;6.70;1.90;;;22.70;60.80;;;;;;5016713;28;20604;-53
2023/06/15 08:36:25;;;;;;;2.60;1.87;;;22.80;59.50;;;;;;5035575;28;20175;-50
2023/06/15 08:38:52;;;;;;;2.93;1.90;;;22.90;59.50;;;;;;5041976;28;20219;-52
2023/06/15 08:41:23;;;;;;;3.27;1.80;;;23.10;59.10;;;;;;5033515;28;20202;-53
2023/06/15 08:43:53;;;;;;;2.07;1.50;;;23.10;59.10;;;;;;5036927;28;20230;-53
2023/06/15 08:46:23;;;;;;;2.80;1.90;;;23.30;58.90;;;;;;5038736;28;20223;-54
2023/06/15 08:48:52;;;;;;;4.30;2.27;;;23.30;57.60;;;;;;5020333;28;20228;-54
2023/06/15 08:51:22;;;;;;;5.93;2.00;;;23.30;58.30;;;;;;5037388;28;20187;-54
2023/06/15 08:53:49;;;;;;;4.33;1.97;;;23.20;57.50;;;;;;5038801;28;20265;-52
2023/06/15 08:56:16;;;;;;;7.10;2.20;;;23.10;57.30;;;;;;5037209;28;20203;-52
2023/06/15 08:58:49;;;;;;;3.23;1.80;;;23.00;57.30;;;;;;5036715;28;20341;-52
2023/06/15 09:01:19;;;;;;;4.33;1.80;;;22.90;58.20;;;;;;5040412;28;20274;-54
2023/06/15 09:03:50;;;;;;;2.17;1.70;;;22.80;58.50;;;;;;5021698;28;20333;-54
2023/06/15 09:06:18;;;;;;;2.90;1.90;;;22.60;58.40;;;;;;5032492;28;20600;-53
2023/06/15 09:08:46;;;;;;;4.37;2.30;;;22.40;58.30;;;;;;5030145;28;20284;-53
2023/06/15 09:11:13;;;;;;;4.10;2.07;;;22.30;58.90;;;;;;5043785;28;20897;-53
2023/06/15 09:13:41;;;;;;;2.73;1.67;;;22.30;59.30;;;;;;5040103;28;20199;-53
2023/06/15 09:16:09;;;;;;;2.57;1.93;;;22.20;58.90;;;;;;5035537;28;21043;-51
2023/06/15 09:18:44;;;;;;;2.27;1.90;;;22.10;58.50;;;;;;5025620;28;20740;-50
2023/06/15 09:21:14;;;;;;;4.83;1.90;;;22.10;58.50;;;;;;5036523;28;20199;-54
2023/06/15 09:23:42;;;;;;;3.70;1.67;;;22.10;58.50;;;;;;5027343;28;20288;-52
2023/06/15 09:26:09;;;;;;;3.63;1.80;;;22.00;58.90;;;;;;5030644;28;20207;-54
2023/06/15 09:28:45;;;;;;;4.60;1.80;;;22.00;59.20;;;;;;5030516;28;20237;-53
2023/06/15 09:31:27;;;;;;;5.27;2.00;;;22.10;59.40;;;;;;5040694;28;20198;-53
2023/06/15 09:34:02;;;;;;;3.23;1.87;;;22.20;58.90;;;;;;5039273;28;20202;-51
2023/06/15 09:36:34;;;;;;;2.13;1.77;;;22.40;58.60;;;;;;5022771;28;20205;-53
2023/06/15 09:39:01;;;;;;;5.73;2.17;;;22.50;58.60;;;;;;5034450;28;20235;-52
2023/06/15 09:41:28;;;;;;;6.20;1.90;;;22.50;58.00;;;;;;5039486;28;20202;-53
2023/06/15 09:43:56;;;;;;;5.97;2.00;;;22.60;57.50;;;;;;5035982;28;20191;-54
2023/06/15 09:46:28;;;;;;;4.13;2.10;;;22.70;57.60;;;;;;5038217;28;20230;-55
2023/06/15 09:48:55;;;;;;;2.97;1.80;;;22.70;57.20;;;;;;5040516;28;20222;-49
2023/06/15 09:51:27;;;;;;;1.80;1.70;;;22.70;57.50;;;;;;5015005;28;20273;-52
2023/06/15 09:53:57;;;;;;;5.40;1.90;;;22.70;57.40;;;;;;5028546;28;20662;-51
2023/06/15 09:56:25;;;;;;;2.40;1.97;;;22.70;57.20;;;;;;5036267;28;20188;-51
2023/06/15 09:58:52;;;;;;;3.80;1.80;;;22.70;57.20;;;;;;5037283;28;20341;-53
2023/06/15 10:01:22;;;;;;;3.20;2.17;;;22.70;57.60;;;;;;5031234;28;20202;-52
2023/06/15 10:03:55;;;;;;;3.83;2.07;;;22.70;57.60;;;;;;5037761;28;20196;-51
2023/06/15 10:06:24;;;;;;;3.90;2.13;;;22.70;56.90;;;;;;5012436;28;20240;-53
2023/06/15 10:08:57;;;;;;;2.80;2.20;;;22.70;57.50;;;;;;5043467;28;20300;-52
2023/06/15 10:11:25;;;;;;;2.70;1.77;;;22.60;57.20;;;;;;5031621;28;20213;-53
2023/06/15 10:13:56;;;;;;;5.33;1.93;;;22.70;57.30;;;;;;5046414;28;20250;-49
2023/06/15 10:16:24;;;;;;;2.47;2.10;;;22.80;57.10;;;;;;5033892;28;20261;-54
2023/06/15 10:19:02;;;;;;;5.13;2.10;;;22.80;56.40;;;;;;5043574;28;20215;-53
2023/06/15 10:21:30;;;;;;;3.03;1.90;;;22.90;56.20;;;;;;5032000;28;20203;-53
2023/06/15 10:24:05;;;;;;;4.40;2.03;;;22.80;55.90;;;;;;5023644;28;20915;-48
2023/06/15 10:26:33;;;;;;;5.00;2.00;;;22.80;55.80;;;;;;5028470;28;20219;-55
2023/06/15 10:29:06;;;;;;;6.13;2.05;;;22.90;55.70;;;;;;5037788;28;20277;-50
2023/06/15 10:31:40;;;;;;;4.10;2.35;;;23.00;56.00;;;;;;5040163;28;20187;-56
2023/06/15 10:34:12;;;;;;;2.67;2.30;;;23.10;56.40;;;;;;5029290;28;20927;-51
2023/06/15 10:36:48;;;;;;;3.27;1.90;;;23.10;56.90;;;;;;5018780;28;20196;-55
2023/06/15 10:39:23;;;;;;;3.53;2.00;;;23.30;56.90;;;;;;5038340;28;20689;-53
2023/06/15 10:41:53;;;;;;;4.37;2.13;;;23.30;57.20;;;;;;5025997;28;20260;-47
2023/06/15 10:44:19;;;;;;;2.57;2.37;;;23.30;57.20;;;;;;5045203;28;20195;-49
2023/06/15 10:46:46;;;;;;;4.63;2.50;;;23.20;57.60;;;;;;5033247;28;20261;-47
2023/06/15 10:49:14;;;;;;;6.20;2.33;;;23.20;57.30;;;;;;5045459;28;20211;-53
2023/06/15 10:51:51;;;;;;;2.53;2.33;;;23.20;57.80;;;;;;5036768;28;20198;-52
2023/06/15 10:54:24;;;;;;;3.67;2.40;;;23.30;57.40;;;;;;5016928;28;20243;-50
2023/06/15 10:56:53;;;;;;;2.47;2.28;;;23.30;57.70;;;;;;5026014;28;20210;-52
2023/06/15 10:59:39;;;;;;;5.28;2.10;;;23.20;58.20;;;;;;5044692;28;20219;-50
2023/06/15 11:02:56;;;;;;;2.47;2.28;;;23.20;59.00;;;;;;5045494;28;20280;-55
2023/06/15 11:05:23;;;;;;;2.97;2.50;;;23.30;59.80;;;;;;5029325;28;20203;-51
2023/06/15 11:07:52;;;;;;;4.70;2.40;;;23.50;59.70;;;;;;5035334;28;20219;-49
2023/06/15 11:10:23;;;;;;;7.38;2.70;;;23.50;59.70;;;;;;5024457;28;20590;-50
2023/06/15 11:13:01;;;;;;;4.82;2.80;;;23.60;59.60;;;;;;5026662;28;20201;-51
2023/06/15 11:15:33;;;;;;;3.88;2.70;;;23.50;59.60;;;;;;5041556;28;20965;-53
2023/06/15 11:18:02;;;;;;;6.97;2.92;;;23.40;60.00;;;;;;5036489;28;20203;-50
2023/06/15 11:20:59;;;;;;;3.28;2.38;;;23.40;60.50;;;;;;5046559;28;20326;-53
2023/06/15 11:23:29;;;;;;;9.37;2.70;;;23.50;60.20;;;;;;5046148;28;20320;-52
2023/06/15 11:26:00;;;;;;;2.58;2.22;;;23.40;60.00;;;;;;5010417;28;20325;-50
2023/06/15 11:28:31;;;;;;;5.13;2.97;;;23.40;59.70;;;;;;5031121;28;20603;-52
2023/06/15 11:30:59;;;;;;;3.05;2.75;;;23.30;60.00;;;;;;5042864;28;20360;-50
2023/06/15 11:33:28;;;;;;;5.90;2.40;;;23.20;60.60;;;;;;5048612;28;20188;-52
2023/06/15 11:35:55;;;;;;;3.37;2.83;;;23.10;61.30;;;;;;5038635;28;20196;-49
2023/06/15 11:38:25;;;;;;;5.78;2.72;;;23.10;61.90;;;;;;5034633;28;20257;-56
2023/06/15 11:40:52;;;;;;;4.37;2.77;;;23.10;61.40;;;;;;5005112;28;20199;-55
2023/06/15 11:43:21;;;;;;;2.88;2.67;;;23.30;61.20;;;;;;5035377;28;20282;-48
2023/06/15 11:45:48;;;;;;;2.78;2.58;;;23.40;61.20;;;;;;5028652;28;20306;-54
2023/06/15 11:48:15;;;;;;;3.28;3.00;;;23.50;61.40;;;;;;5038375;28;20889;-47
2023/06/15 11:50:42;;;;;;;3.75;2.40;;;23.50;61.60;;;;;;5032416;28;20257;-54
2023/06/15 11:53:16;;;;;;;6.95;3.13;;;23.40;61.20;;;;;;5037248;28;20186;-48
2023/06/15 11:55:44;;;;;;;4.18;2.65;;;23.20;61.30;;;;;;5019773;28;20238;-50
2023/06/15 11:58:11;;;;;;;4.22;2.88;;;23.10;61.90;;;;;;5027383;28;20845;-48
2023/06/15 12:00:40;;;;;;;4.35;2.60;;;23.10;62.20;;;;;;5018651;28;20238;-53
2023/06/15 12:03:11;;;;;;;3.95;2.20;;;23.20;62.60;;;;;;5029941;28;20204;-51
2023/06/15 12:05:38;;;;;;;2.97;2.22;;;23.30;61.40;;;;;;5020225;28;20267;-52
2023/06/15 12:08:06;;;;;;;4.72;2.80;;;23.50;61.70;;;;;;5035742;28;20268;-48
2023/06/15 12:10:34;;;;;;;2.72;2.53;;;23.60;60.70;;;;;;5043864;28;20230;-50
2023/06/15 12:13:01;;;;;;;3.05;2.75;;;23.70;60.20;;;;;;5020016;28;20207;-51
2023/06/15 12:15:29;;;;;;;2.40;2.20;;;23.60;59.40;;;;;;5028291;28;20203;-50
2023/06/15 12:17:59;;;;;;;4.03;2.60;;;23.60;59.20;;;;;;5029242;28;20203;-47
2023/06/15 12:20:29;;;;;;;3.08;2.60;;;23.70;59.20;;;;;;5035537;28;20235;-52
2023/06/15 12:22:56;;;;;;;3.90;2.40;;;24.00;57.40;;;;;;5038630;28;20187;-50
2023/06/15 12:25:43;;;;;;;3.80;2.22;;;24.00;56.90;;;;;;5043528;28;20192;-51
2023/06/15 12:28:15;;;;;;;2.55;2.35;;;24.20;56.10;;;;;;5006564;28;20219;-47
2023/06/15 12:30:42;;;;;;;2.67;2.47;;;24.30;55.40;;;;;;5026728;28;20635;-54
2023/06/15 12:36:08;;;;;;;2.55;2.13;;;24.20;54.40;;;;;;5110087;27;20548;-51
2023/06/15 12:38:35;;;;;;;3.67;2.67;;;24.10;53.90;;;;;;5113588;28;20615;-52
2023/06/15 12:41:01;;;;;;;2.63;2.30;;;24.00;54.00;;;;;;5095182;28;20182;-48
2023/06/15 12:43:30;;;;;;;4.75;2.55;;;24.00;54.00;;;;;;5080169;28;20205;-48
2023/06/15 12:45:57;;;;;;;2.40;2.20;;;24.00;53.90;;;;;;5088313;28;20204;-48
2023/06/15 12:48:24;;;;;;;2.60;2.40;;;24.20;54.20;;;;;;5090882;28;20711;-47
2023/06/15 12:50:52;;;;;;;2.80;2.60;;;24.30;54.60;;;;;;5075712;28;20604;-51
2023/06/15 12:53:20;;;;;;;3.00;2.63;;;24.40;54.40;;;;;;5096997;28;20857;-52
2023/06/15 12:55:48;;;;;;;5.10;2.53;;;24.30;54.20;;;;;;5098847;28;20224;-48
2023/06/15 12:58:16;;;;;;;3.50;2.50;;;24.20;54.60;;;;;;5081503;28;20201;-56
2023/06/15 13:00:43;;;;;;;3.20;2.90;;;24.40;54.60;;;;;;5089041;28;20193;-50
2023/06/15 13:03:11;;;;;;;4.50;2.90;;;24.30;54.70;;;;;;5074051;28;20305;-55
2023/06/15 13:05:39;;;;;;;2.88;2.33;;;24.40;54.80;;;;;;5086253;28;20223;-49
2023/06/15 13:08:06;;;;;;;4.30;3.03;;;24.30;55.00;;;;;;5097586;28;20615;-52
2023/06/15 13:10:34;;;;;;;4.30;2.60;;;24.00;55.70;;;;;;5095213;28;20198;-52
2023/06/15 13:13:01;;;;;;;4.28;2.45;;;23.90;56.10;;;;;;5098506;28;20556;-50